sensor_id;sensor_type;location;lat;lon;timestamp;P1;durP1;ratioP1;P2;durP2;ratioP2
69463;SDS011;56665;41.106;16.688;2023-07-13T00:00:32;8.15;;;6.10;;
69463;SDS011;56665;41.106;16.688;2023-07-13T00:03:36;11.07;;;6.32;;
69463;SDS011;56665;41.106;16.688;2023-07-13T00:06:39;7.53;;;5.20;;
69463;SDS011;56665;41.106;16.688;2023-07-13T00:09:47;9.43;;;5.70;;
69463;SDS011;56665;41.106;16.688;2023-07-13T00:12:51;9.85;;;6.05;;
69463;SDS011;56665;41.106;16.688;2023-07-13T00:15:58;7.70;;;5.97;;
69463;SDS011;56665;41.106;16.688;2023-07-13T00:19:02;9.25;;;5.47;;
69463;SDS011;56665;41.106;16.688;2023-07-13T00:22:06;7.70;;;5.55;;
69463;SDS011;56665;41.106;16.688;2023-07-13T00:25:10;9.90;;;5.47;;
69463;SDS011;56665;41.106;16.688;2023-07-13T00:28:16;11.30;;;5.45;;
69463;SDS011;56665;41.106;16.688;2023-07-13T00:31:21;12.20;;;6.28;;
69463;SDS011;56665;41.106;16.688;2023-07-13T00:34:25;11.27;;;5.50;;
69463;SDS011;56665;41.106;16.688;2023-07-13T00:37:29;11.60;;;5.95;;
69463;SDS011;56665;41.106;16.688;2023-07-13T00:40:35;10.57;;;6.07;;
69463;SDS011;56665;41.106;16.688;2023-07-13T00:43:40;13.63;;;6.03;;
69463;SDS011;56665;41.106;16.688;2023-07-13T00:46:45;14.68;;;6.05;;
69463;SDS011;56665;41.106;16.688;2023-07-13T00:49:49;10.57;;;5.80;;
69463;SDS011;56665;41.106;16.688;2023-07-13T00:52:53;11.77;;;6.22;;
69463;SDS011;56665;41.106;16.688;2023-07-13T00:55:58;10.97;;;5.90;;
69463;SDS011;56665;41.106;16.688;2023-07-13T00:59:03;13.82;;;5.78;;
69463;SDS011;56665;41.106;16.688;2023-07-13T01:02:10;14.20;;;5.82;;
69463;SDS011;56665;41.106;16.688;2023-07-13T01:05:15;12.02;;;6.07;;
69463;SDS011;56665;41.106;16.688;2023-07-13T01:08:21;8.93;;;5.20;;
69463;SDS011;56665;41.106;16.688;2023-07-13T01:11:25;13.60;;;5.97;;
69463;SDS011;56665;41.106;16.688;2023-07-13T01:14:29;11.32;;;5.82;;
69463;SDS011;56665;41.106;16.688;2023-07-13T01:17:33;12.35;;;6.28;;
69463;SDS011;56665;41.106;16.688;2023-07-13T01:20:37;15.48;;;5.85;;
69463;SDS011;56665;41.106;16.688;2023-07-13T01:23:41;13.55;;;6.15;;
69463;SDS011;56665;41.106;16.688;2023-07-13T01:26:47;12.40;;;5.43;;
69463;SDS011;56665;41.106;16.688;2023-07-13T01:29:51;10.77;;;5.35;;
69463;SDS011;56665;41.106;16.688;2023-07-13T01:32:56;10.00;;;6.05;;
69463;SDS011;56665;41.106;16.688;2023-07-13T01:36:00;15.20;;;10.75;;
69463;SDS011;56665;41.106;16.688;2023-07-13T01:39:05;20.90;;;10.35;;
69463;SDS011;56665;41.106;16.688;2023-07-13T01:42:11;15.97;;;7.87;;
69463;SDS011;56665;41.106;16.688;2023-07-13T01:45:15;9.25;;;7.15;;
69463;SDS011;56665;41.106;16.688;2023-07-13T01:48:19;9.00;;;5.47;;
69463;SDS011;56665;41.106;16.688;2023-07-13T01:51:25;9.77;;;5.30;;
69463;SDS011;56665;41.106;16.688;2023-07-13T01:54:30;10.90;;;5.95;;
69463;SDS011;56665;41.106;16.688;2023-07-13T01:57:34;12.03;;;5.97;;
69463;SDS011;56665;41.106;16.688;2023-07-13T02:00:37;10.60;;;5.60;;
69463;SDS011;56665;41.106;16.688;2023-07-13T02:03:41;10.65;;;6.03;;
69463;SDS011;56665;41.106;16.688;2023-07-13T02:06:45;8.75;;;5.40;;
69463;SDS011;56665;41.106;16.688;2023-07-13T02:09:49;10.35;;;5.43;;
69463;SDS011;56665;41.106;16.688;2023-07-13T02:12:53;10.87;;;5.77;;
69463;SDS011;56665;41.106;16.688;2023-07-13T02:15:56;6.30;;;5.20;;
69463;SDS011;56665;41.106;16.688;2023-07-13T02:19:00;14.57;;;6.18;;
69463;SDS011;56665;41.106;16.688;2023-07-13T02:22:04;8.23;;;5.15;;
69463;SDS011;56665;41.106;16.688;2023-07-13T02:25:08;8.90;;;4.93;;
69463;SDS011;56665;41.106;16.688;2023-07-13T02:28:12;8.70;;;4.90;;
69463;SDS011;56665;41.106;16.688;2023-07-13T02:31:16;9.27;;;5.05;;
69463;SDS011;56665;41.106;16.688;2023-07-13T02:34:19;10.73;;;5.10;;
69463;SDS011;56665;41.106;16.688;2023-07-13T02:37:23;9.80;;;4.97;;
69463;SDS011;56665;41.106;16.688;2023-07-13T02:40:27;10.63;;;4.70;;
69463;SDS011;56665;41.106;16.688;2023-07-13T02:43:31;9.27;;;4.43;;
69463;SDS011;56665;41.106;16.688;2023-07-13T02:46:36;8.85;;;4.63;;
69463;SDS011;56665;41.106;16.688;2023-07-13T02:49:40;9.43;;;4.90;;
69463;SDS011;56665;41.106;16.688;2023-07-13T02:52:44;12.50;;;5.00;;
69463;SDS011;56665;41.106;16.688;2023-07-13T02:55:48;8.90;;;4.03;;
69463;SDS011;56665;41.106;16.688;2023-07-13T02:58:52;10.93;;;4.90;;
69463;SDS011;56665;41.106;16.688;2023-07-13T03:01:57;12.73;;;4.63;;
69463;SDS011;56665;41.106;16.688;2023-07-13T03:05:01;5.55;;;4.18;;
69463;SDS011;56665;41.106;16.688;2023-07-13T03:08:07;7.75;;;3.95;;
69463;SDS011;56665;41.106;16.688;2023-07-13T03:11:13;8.48;;;4.50;;
69463;SDS011;56665;41.106;16.688;2023-07-13T03:14:19;6.83;;;3.40;;
69463;SDS011;56665;41.106;16.688;2023-07-13T03:17:24;8.10;;;4.07;;
69463;SDS011;56665;41.106;16.688;2023-07-13T03:20:31;10.77;;;4.07;;
69463;SDS011;56665;41.106;16.688;2023-07-13T03:23:36;9.27;;;4.00;;
69463;SDS011;56665;41.106;16.688;2023-07-13T03:26:39;9.68;;;4.10;;
69463;SDS011;56665;41.106;16.688;2023-07-13T03:29:43;9.67;;;4.30;;
69463;SDS011;56665;41.106;16.688;2023-07-13T03:32:49;12.32;;;5.47;;
69463;SDS011;56665;41.106;16.688;2023-07-13T03:35:52;11.30;;;6.30;;
69463;SDS011;56665;41.106;16.688;2023-07-13T03:38:57;11.35;;;8.02;;
69463;SDS011;56665;41.106;16.688;2023-07-13T03:42:10;17.33;;;11.77;;
69463;SDS011;56665;41.106;16.688;2023-07-13T03:45:14;21.80;;;10.90;;
69463;SDS011;56665;41.106;16.688;2023-07-13T03:48:17;12.85;;;7.78;;
69463;SDS011;56665;41.106;16.688;2023-07-13T03:51:22;12.13;;;6.03;;
69463;SDS011;56665;41.106;16.688;2023-07-13T03:54:26;7.18;;;4.90;;
69463;SDS011;56665;41.106;16.688;2023-07-13T03:57:30;12.02;;;4.22;;
69463;SDS011;56665;41.106;16.688;2023-07-13T04:00:36;9.03;;;4.23;;
69463;SDS011;56665;41.106;16.688;2023-07-13T04:03:40;7.30;;;4.55;;
69463;SDS011;56665;41.106;16.688;2023-07-13T04:06:43;9.52;;;5.22;;
69463;SDS011;56665;41.106;16.688;2023-07-13T04:09:48;10.57;;;5.57;;
69463;SDS011;56665;41.106;16.688;2023-07-13T04:12:52;10.80;;;4.88;;
69463;SDS011;56665;41.106;16.688;2023-07-13T04:15:56;11.00;;;5.67;;
69463;SDS011;56665;41.106;16.688;2023-07-13T04:19:01;10.27;;;5.53;;
69463;SDS011;56665;41.106;16.688;2023-07-13T04:22:05;11.10;;;6.35;;
69463;SDS011;56665;41.106;16.688;2023-07-13T04:25:09;13.02;;;5.72;;
69463;SDS011;56665;41.106;16.688;2023-07-13T04:28:12;11.40;;;6.47;;
69463;SDS011;56665;41.106;16.688;2023-07-13T04:31:16;11.33;;;5.90;;
69463;SDS011;56665;41.106;16.688;2023-07-13T04:34:20;10.70;;;5.68;;
69463;SDS011;56665;41.106;16.688;2023-07-13T04:37:24;13.13;;;6.68;;
69463;SDS011;56665;41.106;16.688;2023-07-13T04:40:29;8.35;;;5.20;;
69463;SDS011;56665;41.106;16.688;2023-07-13T04:43:32;13.30;;;5.60;;
69463;SDS011;56665;41.106;16.688;2023-07-13T04:46:37;12.77;;;5.33;;
69463;SDS011;56665;41.106;16.688;2023-07-13T04:49:41;11.00;;;4.85;;
69463;SDS011;56665;41.106;16.688;2023-07-13T04:52:45;13.70;;;5.22;;
69463;SDS011;56665;41.106;16.688;2023-07-13T04:55:48;12.43;;;5.57;;
69463;SDS011;56665;41.106;16.688;2023-07-13T04:58:52;11.82;;;5.35;;
69463;SDS011;56665;41.106;16.688;2023-07-13T05:01:56;12.07;;;5.10;;
69463;SDS011;56665;41.106;16.688;2023-07-13T05:05:00;11.18;;;4.35;;
69463;SDS011;56665;41.106;16.688;2023-07-13T05:08:04;11.15;;;5.03;;
69463;SDS011;56665;41.106;16.688;2023-07-13T05:11:08;11.95;;;4.55;;
69463;SDS011;56665;41.106;16.688;2023-07-13T05:14:12;10.00;;;4.65;;
69463;SDS011;56665;41.106;16.688;2023-07-13T05:17:15;9.87;;;4.70;;
69463;SDS011;56665;41.106;16.688;2023-07-13T05:20:19;12.75;;;5.15;;
69463;SDS011;56665;41.106;16.688;2023-07-13T05:23:23;14.63;;;5.22;;
69463;SDS011;56665;41.106;16.688;2023-07-13T05:26:27;10.73;;;4.80;;
69463;SDS011;56665;41.106;16.688;2023-07-13T05:29:31;17.15;;;4.45;;
69463;SDS011;56665;41.106;16.688;2023-07-13T05:32:34;13.10;;;4.40;;
69463;SDS011;56665;41.106;16.688;2023-07-13T05:35:38;13.88;;;4.20;;
69463;SDS011;56665;41.106;16.688;2023-07-13T05:38:43;9.15;;;4.03;;
69463;SDS011;56665;41.106;16.688;2023-07-13T05:41:46;7.65;;;3.38;;
69463;SDS011;56665;41.106;16.688;2023-07-13T05:44:50;13.38;;;3.90;;
69463;SDS011;56665;41.106;16.688;2023-07-13T05:47:56;6.13;;;3.60;;
69463;SDS011;56665;41.106;16.688;2023-07-13T05:51:00;6.28;;;3.47;;
69463;SDS011;56665;41.106;16.688;2023-07-13T05:54:04;7.15;;;3.83;;
69463;SDS011;56665;41.106;16.688;2023-07-13T05:57:08;11.35;;;4.10;;
69463;SDS011;56665;41.106;16.688;2023-07-13T06:00:12;7.00;;;4.30;;
69463;SDS011;56665;41.106;16.688;2023-07-13T06:03:17;7.73;;;3.90;;
69463;SDS011;56665;41.106;16.688;2023-07-13T06:06:21;8.32;;;3.60;;
69463;SDS011;56665;41.106;16.688;2023-07-13T06:09:24;6.57;;;3.50;;
69463;SDS011;56665;41.106;16.688;2023-07-13T06:12:28;7.40;;;3.35;;
69463;SDS011;56665;41.106;16.688;2023-07-13T06:15:32;6.57;;;3.65;;
69463;SDS011;56665;41.106;16.688;2023-07-13T06:18:36;7.43;;;3.77;;
69463;SDS011;56665;41.106;16.688;2023-07-13T06:21:40;6.45;;;4.15;;
69463;SDS011;56665;41.106;16.688;2023-07-13T06:24:45;8.38;;;4.03;;
69463;SDS011;56665;41.106;16.688;2023-07-13T06:27:49;10.48;;;3.60;;
69463;SDS011;56665;41.106;16.688;2023-07-13T06:30:52;12.38;;;3.78;;
69463;SDS011;56665;41.106;16.688;2023-07-13T06:33:56;10.23;;;3.93;;
69463;SDS011;56665;41.106;16.688;2023-07-13T06:37:00;13.20;;;3.97;;
69463;SDS011;56665;41.106;16.688;2023-07-13T06:40:04;14.38;;;4.78;;
69463;SDS011;56665;41.106;16.688;2023-07-13T06:43:08;10.65;;;4.00;;
69463;SDS011;56665;41.106;16.688;2023-07-13T06:46:12;8.57;;;4.30;;
69463;SDS011;56665;41.106;16.688;2023-07-13T06:49:15;9.57;;;3.70;;
69463;SDS011;56665;41.106;16.688;2023-07-13T06:52:19;13.57;;;3.85;;
69463;SDS011;56665;41.106;16.688;2023-07-13T06:55:23;7.80;;;3.88;;
69463;SDS011;56665;41.106;16.688;2023-07-13T06:58:27;12.88;;;3.85;;
69463;SDS011;56665;41.106;16.688;2023-07-13T07:01:30;15.90;;;4.20;;
69463;SDS011;56665;41.106;16.688;2023-07-13T07:04:34;13.10;;;4.20;;
69463;SDS011;56665;41.106;16.688;2023-07-13T07:07:42;10.10;;;4.38;;
69463;SDS011;56665;41.106;16.688;2023-07-13T07:10:46;12.40;;;4.75;;
69463;SDS011;56665;41.106;16.688;2023-07-13T07:13:51;8.98;;;4.22;;
69463;SDS011;56665;41.106;16.688;2023-07-13T07:16:55;10.40;;;4.50;;
69463;SDS011;56665;41.106;16.688;2023-07-13T07:19:59;10.87;;;4.07;;
69463;SDS011;56665;41.106;16.688;2023-07-13T07:23:03;7.75;;;4.47;;
69463;SDS011;56665;41.106;16.688;2023-07-13T07:26:06;13.25;;;4.70;;
69463;SDS011;56665;41.106;16.688;2023-07-13T07:29:12;9.45;;;4.82;;
69463;SDS011;56665;41.106;16.688;2023-07-13T07:32:16;11.13;;;5.55;;
69463;SDS011;56665;41.106;16.688;2023-07-13T07:35:19;10.50;;;5.57;;
69463;SDS011;56665;41.106;16.688;2023-07-13T07:38:23;16.50;;;6.05;;
69463;SDS011;56665;41.106;16.688;2023-07-13T07:41:26;9.98;;;5.90;;
69463;SDS011;56665;41.106;16.688;2023-07-13T07:44:31;11.18;;;5.65;;
69463;SDS011;56665;41.106;16.688;2023-07-13T07:47:35;11.38;;;5.72;;
69463;SDS011;56665;41.106;16.688;2023-07-13T07:50:38;7.00;;;5.70;;
69463;SDS011;56665;41.106;16.688;2023-07-13T07:53:43;9.75;;;5.75;;
69463;SDS011;56665;41.106;16.688;2023-07-13T07:56:46;7.60;;;6.13;;
69463;SDS011;56665;41.106;16.688;2023-07-13T07:59:50;11.50;;;6.50;;
69463;SDS011;56665;41.106;16.688;2023-07-13T08:02:54;14.95;;;6.80;;
69463;SDS011;56665;41.106;16.688;2023-07-13T08:05:58;13.33;;;6.53;;
69463;SDS011;56665;41.106;16.688;2023-07-13T08:09:01;11.02;;;6.78;;
69463;SDS011;56665;41.106;16.688;2023-07-13T08:12:07;14.30;;;6.78;;
69463;SDS011;56665;41.106;16.688;2023-07-13T08:15:13;18.42;;;7.80;;
69463;SDS011;56665;41.106;16.688;2023-07-13T08:18:18;16.38;;;9.00;;
69463;SDS011;56665;41.106;16.688;2023-07-13T08:21:21;16.60;;;8.53;;
69463;SDS011;56665;41.106;16.688;2023-07-13T08:24:25;12.30;;;8.05;;
69463;SDS011;56665;41.106;16.688;2023-07-13T08:27:29;12.15;;;7.72;;
69463;SDS011;56665;41.106;16.688;2023-07-13T08:30:33;16.67;;;8.80;;
69463;SDS011;56665;41.106;16.688;2023-07-13T08:33:36;14.13;;;7.68;;
69463;SDS011;56665;41.106;16.688;2023-07-13T08:36:41;10.33;;;7.23;;
69463;SDS011;56665;41.106;16.688;2023-07-13T08:39:45;11.68;;;7.13;;
69463;SDS011;56665;41.106;16.688;2023-07-13T08:42:58;12.75;;;6.80;;
69463;SDS011;56665;41.106;16.688;2023-07-13T08:49:10;12.80;;;7.80;;
69463;SDS011;56665;41.106;16.688;2023-07-13T08:52:35;13.17;;;6.70;;
69463;SDS011;56665;41.106;16.688;2023-07-13T08:55:41;13.23;;;6.63;;
69463;SDS011;56665;41.106;16.688;2023-07-13T08:58:26;18.73;;;6.72;;
69463;SDS011;56665;41.106;16.688;2023-07-13T09:05:00;9.38;;;5.88;;
69463;SDS011;56665;41.106;16.688;2023-07-13T09:11:36;12.25;;;5.20;;
69463;SDS011;56665;41.106;16.688;2023-07-13T09:14:54;7.93;;;5.05;;
69463;SDS011;56665;41.106;16.688;2023-07-13T09:21:37;10.27;;;4.63;;
69463;SDS011;56665;41.106;16.688;2023-07-13T09:27:59;5.60;;;4.10;;
69463;SDS011;56665;41.106;16.688;2023-07-13T09:31:19;9.73;;;4.20;;
69463;SDS011;56665;41.106;16.688;2023-07-13T09:34:27;7.93;;;4.15;;
69463;SDS011;56665;41.106;16.688;2023-07-13T09:37:34;8.98;;;4.30;;
69463;SDS011;56665;41.106;16.688;2023-07-13T09:44:07;9.82;;;5.00;;
69463;SDS011;56665;41.106;16.688;2023-07-13T09:47:15;6.88;;;4.07;;
69463;SDS011;56665;41.106;16.688;2023-07-13T09:50:20;5.15;;;4.05;;
69463;SDS011;56665;41.106;16.688;2023-07-13T09:53:25;5.75;;;3.58;;
69463;SDS011;56665;41.106;16.688;2023-07-13T09:56:34;10.10;;;4.10;;
69463;SDS011;56665;41.106;16.688;2023-07-13T09:59:43;6.55;;;4.00;;
69463;SDS011;56665;41.106;16.688;2023-07-13T10:06:23;5.50;;;3.50;;
69463;SDS011;56665;41.106;16.688;2023-07-13T10:09:27;7.75;;;3.83;;
69463;SDS011;56665;41.106;16.688;2023-07-13T10:12:35;7.67;;;4.10;;
69463;SDS011;56665;41.106;16.688;2023-07-13T10:15:39;8.60;;;3.92;;
69463;SDS011;56665;41.106;16.688;2023-07-13T10:18:51;8.02;;;3.60;;
69463;SDS011;56665;41.106;16.688;2023-07-13T10:22:00;7.90;;;4.10;;
69463;SDS011;56665;41.106;16.688;2023-07-13T10:25:13;10.60;;;5.55;;
69463;SDS011;56665;41.106;16.688;2023-07-13T10:28:30;9.60;;;4.90;;
69463;SDS011;56665;41.106;16.688;2023-07-13T10:31:38;10.57;;;4.95;;
69463;SDS011;56665;41.106;16.688;2023-07-13T10:34:43;11.88;;;4.97;;
69463;SDS011;56665;41.106;16.688;2023-07-13T10:37:59;8.52;;;5.03;;
69463;SDS011;56665;41.106;16.688;2023-07-13T10:41:10;7.70;;;5.05;;
69463;SDS011;56665;41.106;16.688;2023-07-13T10:44:29;7.73;;;5.00;;
69463;SDS011;56665;41.106;16.688;2023-07-13T10:47:34;11.25;;;5.20;;
69463;SDS011;56665;41.106;16.688;2023-07-13T10:50:37;8.20;;;4.72;;
69463;SDS011;56665;41.106;16.688;2023-07-13T10:53:45;8.52;;;5.18;;
69463;SDS011;56665;41.106;16.688;2023-07-13T10:56:49;13.38;;;5.50;;
69463;SDS011;56665;41.106;16.688;2023-07-13T11:03:10;12.20;;;5.10;;
69463;SDS011;56665;41.106;16.688;2023-07-13T11:06:29;13.32;;;5.50;;
69463;SDS011;56665;41.106;16.688;2023-07-13T11:09:40;10.00;;;4.53;;
69463;SDS011;56665;41.106;16.688;2023-07-13T11:15:51;8.77;;;4.93;;
69463;SDS011;56665;41.106;16.688;2023-07-13T11:22:13;10.27;;;5.13;;
69463;SDS011;56665;41.106;16.688;2023-07-13T11:28:24;7.60;;;4.78;;
69463;SDS011;56665;41.106;16.688;2023-07-13T11:31:29;10.20;;;4.83;;
69463;SDS011;56665;41.106;16.688;2023-07-13T11:34:38;9.95;;;5.13;;
69463;SDS011;56665;41.106;16.688;2023-07-13T11:37:42;10.40;;;5.60;;
69463;SDS011;56665;41.106;16.688;2023-07-13T11:40:50;11.05;;;5.03;;
69463;SDS011;56665;41.106;16.688;2023-07-13T11:44:08;10.02;;;5.40;;
69463;SDS011;56665;41.106;16.688;2023-07-13T11:47:22;10.77;;;4.77;;
69463;SDS011;56665;41.106;16.688;2023-07-13T11:50:28;10.13;;;5.03;;
69463;SDS011;56665;41.106;16.688;2023-07-13T11:53:38;8.75;;;4.85;;
69463;SDS011;56665;41.106;16.688;2023-07-13T11:56:44;13.13;;;4.97;;
69463;SDS011;56665;41.106;16.688;2023-07-13T11:59:50;9.90;;;5.25;;
69463;SDS011;56665;41.106;16.688;2023-07-13T12:02:56;12.03;;;5.23;;
69463;SDS011;56665;41.106;16.688;2023-07-13T12:06:06;10.73;;;4.80;;
69463;SDS011;56665;41.106;16.688;2023-07-13T12:09:33;9.95;;;5.03;;
69463;SDS011;56665;41.106;16.688;2023-07-13T12:12:43;12.27;;;5.15;;
69463;SDS011;56665;41.106;16.688;2023-07-13T12:15:53;9.77;;;4.80;;
69463;SDS011;56665;41.106;16.688;2023-07-13T12:18:59;9.37;;;5.60;;
69463;SDS011;56665;41.106;16.688;2023-07-13T12:22:04;13.68;;;5.15;;
69463;SDS011;56665;41.106;16.688;2023-07-13T12:25:12;8.45;;;5.35;;
69463;SDS011;56665;41.106;16.688;2023-07-13T12:28:30;8.30;;;5.30;;
69463;SDS011;56665;41.106;16.688;2023-07-13T12:31:40;9.10;;;5.60;;
69463;SDS011;56665;41.106;16.688;2023-07-13T12:34:54;12.53;;;5.40;;
69463;SDS011;56665;41.106;16.688;2023-07-13T12:37:59;9.75;;;5.50;;
69463;SDS011;56665;41.106;16.688;2023-07-13T12:41:04;9.60;;;5.70;;
69463;SDS011;56665;41.106;16.688;2023-07-13T12:44:12;8.43;;;5.40;;
69463;SDS011;56665;41.106;16.688;2023-07-13T12:47:19;11.27;;;5.78;;
69463;SDS011;56665;41.106;16.688;2023-07-13T12:50:27;11.13;;;5.63;;
69463;SDS011;56665;41.106;16.688;2023-07-13T12:53:34;9.13;;;5.72;;
69463;SDS011;56665;41.106;16.688;2023-07-13T12:56:44;12.38;;;5.75;;
69463;SDS011;56665;41.106;16.688;2023-07-13T12:59:53;12.15;;;5.43;;
69463;SDS011;56665;41.106;16.688;2023-07-13T13:02:57;9.48;;;5.47;;
69463;SDS011;56665;41.106;16.688;2023-07-13T13:06:19;8.97;;;5.13;;
69463;SDS011;56665;41.106;16.688;2023-07-13T13:09:27;9.00;;;4.82;;
69463;SDS011;56665;41.106;16.688;2023-07-13T13:12:31;8.90;;;4.82;;
69463;SDS011;56665;41.106;16.688;2023-07-13T13:15:35;10.18;;;4.72;;
69463;SDS011;56665;41.106;16.688;2023-07-13T13:18:40;10.68;;;4.63;;
69463;SDS011;56665;41.106;16.688;2023-07-13T13:21:45;7.23;;;4.83;;
69463;SDS011;56665;41.106;16.688;2023-07-13T13:24:49;15.02;;;5.18;;
69463;SDS011;56665;41.106;16.688;2023-07-13T13:27:54;9.13;;;5.05;;
69463;SDS011;56665;41.106;16.688;2023-07-13T13:30:59;11.35;;;4.63;;
69463;SDS011;56665;41.106;16.688;2023-07-13T13:34:04;8.63;;;4.88;;
69463;SDS011;56665;41.106;16.688;2023-07-13T13:37:16;9.90;;;5.07;;
69463;SDS011;56665;41.106;16.688;2023-07-13T13:40:22;10.80;;;5.30;;
69463;SDS011;56665;41.106;16.688;2023-07-13T13:43:31;9.13;;;5.20;;
69463;SDS011;56665;41.106;16.688;2023-07-13T13:46:35;8.93;;;4.75;;
69463;SDS011;56665;41.106;16.688;2023-07-13T13:49:39;11.38;;;5.15;;
69463;SDS011;56665;41.106;16.688;2023-07-13T13:52:43;13.23;;;4.80;;
69463;SDS011;56665;41.106;16.688;2023-07-13T13:55:47;11.20;;;4.90;;
69463;SDS011;56665;41.106;16.688;2023-07-13T13:58:50;9.13;;;5.05;;
69463;SDS011;56665;41.106;16.688;2023-07-13T14:01:54;10.18;;;4.70;;
69463;SDS011;56665;41.106;16.688;2023-07-13T14:04:59;12.00;;;5.13;;
69463;SDS011;56665;41.106;16.688;2023-07-13T14:08:04;9.63;;;5.37;;
69463;SDS011;56665;41.106;16.688;2023-07-13T14:11:11;9.57;;;5.03;;
69463;SDS011;56665;41.106;16.688;2023-07-13T14:14:20;9.63;;;5.40;;
69463;SDS011;56665;41.106;16.688;2023-07-13T14:17:27;10.90;;;4.50;;
69463;SDS011;56665;41.106;16.688;2023-07-13T14:20:31;10.70;;;4.88;;
69463;SDS011;56665;41.106;16.688;2023-07-13T14:23:35;10.40;;;4.90;;
69463;SDS011;56665;41.106;16.688;2023-07-13T14:26:40;12.75;;;4.45;;
69463;SDS011;56665;41.106;16.688;2023-07-13T14:29:44;12.02;;;4.97;;
69463;SDS011;56665;41.106;16.688;2023-07-13T14:32:48;12.75;;;4.72;;
69463;SDS011;56665;41.106;16.688;2023-07-13T14:35:54;10.02;;;4.70;;
69463;SDS011;56665;41.106;16.688;2023-07-13T14:38:59;12.30;;;4.80;;
69463;SDS011;56665;41.106;16.688;2023-07-13T14:42:04;10.18;;;4.93;;
69463;SDS011;56665;41.106;16.688;2023-07-13T14:45:12;13.10;;;5.28;;
69463;SDS011;56665;41.106;16.688;2023-07-13T14:48:19;10.98;;;4.45;;
69463;SDS011;56665;41.106;16.688;2023-07-13T14:51:25;11.75;;;4.68;;
69463;SDS011;56665;41.106;16.688;2023-07-13T14:54:29;8.00;;;4.80;;
69463;SDS011;56665;41.106;16.688;2023-07-13T14:57:32;9.35;;;4.50;;
69463;SDS011;56665;41.106;16.688;2023-07-13T15:00:36;8.35;;;4.88;;
69463;SDS011;56665;41.106;16.688;2023-07-13T15:03:45;10.38;;;5.03;;
69463;SDS011;56665;41.106;16.688;2023-07-13T15:07:01;9.15;;;4.40;;
69463;SDS011;56665;41.106;16.688;2023-07-13T15:10:24;12.47;;;4.53;;
69463;SDS011;56665;41.106;16.688;2023-07-13T15:13:30;8.23;;;4.55;;
69463;SDS011;56665;41.106;16.688;2023-07-13T15:16:34;9.15;;;4.75;;
69463;SDS011;56665;41.106;16.688;2023-07-13T15:19:38;10.27;;;5.00;;
69463;SDS011;56665;41.106;16.688;2023-07-13T15:22:42;8.10;;;4.50;;
69463;SDS011;56665;41.106;16.688;2023-07-13T15:25:46;8.63;;;4.70;;
69463;SDS011;56665;41.106;16.688;2023-07-13T15:28:50;8.98;;;4.88;;
69463;SDS011;56665;41.106;16.688;2023-07-13T15:31:53;9.35;;;4.50;;
69463;SDS011;56665;41.106;16.688;2023-07-13T15:34:57;9.32;;;4.32;;
69463;SDS011;56665;41.106;16.688;2023-07-13T15:38:01;11.88;;;4.40;;
69463;SDS011;56665;41.106;16.688;2023-07-13T15:41:16;8.90;;;4.27;;
69463;SDS011;56665;41.106;16.688;2023-07-13T15:47:31;8.45;;;4.15;;
69463;SDS011;56665;41.106;16.688;2023-07-13T15:50:39;8.70;;;4.13;;
69463;SDS011;56665;41.106;16.688;2023-07-13T15:53:47;8.10;;;4.50;;
69463;SDS011;56665;41.106;16.688;2023-07-13T15:56:52;7.13;;;4.47;;
69463;SDS011;56665;41.106;16.688;2023-07-13T15:59:58;7.72;;;4.30;;
69463;SDS011;56665;41.106;16.688;2023-07-13T16:03:02;8.55;;;4.32;;
69463;SDS011;56665;41.106;16.688;2023-07-13T16:06:26;12.55;;;5.68;;
69463;SDS011;56665;41.106;16.688;2023-07-13T16:09:36;9.90;;;4.63;;
69463;SDS011;56665;41.106;16.688;2023-07-13T16:12:41;8.47;;;4.50;;
69463;SDS011;56665;41.106;16.688;2023-07-13T16:15:45;6.53;;;4.00;;
69463;SDS011;56665;41.106;16.688;2023-07-13T16:18:48;6.95;;;4.75;;
69463;SDS011;56665;41.106;16.688;2023-07-13T16:21:52;7.05;;;4.40;;
69463;SDS011;56665;41.106;16.688;2023-07-13T16:24:56;7.53;;;4.03;;
69463;SDS011;56665;41.106;16.688;2023-07-13T16:28:01;9.27;;;4.43;;
69463;SDS011;56665;41.106;16.688;2023-07-13T16:31:04;11.82;;;4.88;;
69463;SDS011;56665;41.106;16.688;2023-07-13T16:34:10;7.05;;;4.90;;
69463;SDS011;56665;41.106;16.688;2023-07-13T16:37:25;10.88;;;5.07;;
69463;SDS011;56665;41.106;16.688;2023-07-13T16:40:32;12.15;;;4.55;;
69463;SDS011;56665;41.106;16.688;2023-07-13T16:43:38;8.20;;;4.07;;
69463;SDS011;56665;41.106;16.688;2023-07-13T16:46:42;9.88;;;4.20;;
69463;SDS011;56665;41.106;16.688;2023-07-13T16:49:46;8.68;;;4.32;;
69463;SDS011;56665;41.106;16.688;2023-07-13T16:52:50;7.28;;;4.05;;
69463;SDS011;56665;41.106;16.688;2023-07-13T16:55:56;6.70;;;4.22;;
69463;SDS011;56665;41.106;16.688;2023-07-13T16:59:07;9.50;;;4.23;;
69463;SDS011;56665;41.106;16.688;2023-07-13T17:02:28;14.68;;;4.90;;
69463;SDS011;56665;41.106;16.688;2023-07-13T17:05:38;8.15;;;4.40;;
69463;SDS011;56665;41.106;16.688;2023-07-13T17:08:44;11.25;;;5.22;;
69463;SDS011;56665;41.106;16.688;2023-07-13T17:11:48;12.25;;;4.78;;
69463;SDS011;56665;41.106;16.688;2023-07-13T17:14:53;7.57;;;4.27;;
69463;SDS011;56665;41.106;16.688;2023-07-13T17:17:56;9.13;;;4.43;;
69463;SDS011;56665;41.106;16.688;2023-07-13T17:21:13;8.50;;;4.35;;
69463;SDS011;56665;41.106;16.688;2023-07-13T17:24:19;12.23;;;4.93;;
69463;SDS011;56665;41.106;16.688;2023-07-13T17:27:24;8.95;;;4.60;;
69463;SDS011;56665;41.106;16.688;2023-07-13T17:30:28;7.57;;;4.47;;
69463;SDS011;56665;41.106;16.688;2023-07-13T17:33:33;9.70;;;4.60;;
69463;SDS011;56665;41.106;16.688;2023-07-13T17:36:42;8.95;;;4.72;;
69463;SDS011;56665;41.106;16.688;2023-07-13T17:39:46;10.20;;;4.82;;
69463;SDS011;56665;41.106;16.688;2023-07-13T17:42:50;7.63;;;5.60;;
69463;SDS011;56665;41.106;16.688;2023-07-13T17:46:08;9.13;;;5.70;;
69463;SDS011;56665;41.106;16.688;2023-07-13T17:49:21;11.02;;;6.30;;
69463;SDS011;56665;41.106;16.688;2023-07-13T17:52:34;11.10;;;5.47;;
69463;SDS011;56665;41.106;16.688;2023-07-13T17:55:38;10.85;;;4.75;;
69463;SDS011;56665;41.106;16.688;2023-07-13T17:58:42;7.13;;;4.07;;
69463;SDS011;56665;41.106;16.688;2023-07-13T18:01:45;9.63;;;4.13;;
69463;SDS011;56665;41.106;16.688;2023-07-13T18:04:50;11.68;;;5.00;;
69463;SDS011;56665;41.106;16.688;2023-07-13T18:07:54;11.50;;;4.20;;
69463;SDS011;56665;41.106;16.688;2023-07-13T18:10:58;10.48;;;4.53;;
69463;SDS011;56665;41.106;16.688;2023-07-13T18:14:03;13.10;;;4.90;;
69463;SDS011;56665;41.106;16.688;2023-07-13T18:17:08;10.10;;;6.50;;
69463;SDS011;56665;41.106;16.688;2023-07-13T18:20:15;9.38;;;6.05;;
69463;SDS011;56665;41.106;16.688;2023-07-13T18:23:24;12.43;;;7.28;;
69463;SDS011;56665;41.106;16.688;2023-07-13T18:26:28;13.80;;;7.07;;
69463;SDS011;56665;41.106;16.688;2023-07-13T18:29:32;14.48;;;7.82;;
69463;SDS011;56665;41.106;16.688;2023-07-13T18:32:35;11.43;;;5.83;;
69463;SDS011;56665;41.106;16.688;2023-07-13T18:35:40;11.40;;;6.20;;
69463;SDS011;56665;41.106;16.688;2023-07-13T18:38:44;11.20;;;5.85;;
69463;SDS011;56665;41.106;16.688;2023-07-13T18:41:48;11.98;;;5.90;;
69463;SDS011;56665;41.106;16.688;2023-07-13T18:44:51;9.40;;;5.50;;
69463;SDS011;56665;41.106;16.688;2023-07-13T18:47:55;12.70;;;5.57;;
69463;SDS011;56665;41.106;16.688;2023-07-13T18:51:01;10.45;;;6.18;;
69463;SDS011;56665;41.106;16.688;2023-07-13T18:54:11;16.70;;;6.22;;